Time;durP1;ratioP1;P1;durP2;ratioP2;P2;SDS_P1;SDS_P2;PMS_P1;PMS_P2;Temp;Humidity;BMP_temperature;BMP_pressure;BME280_temperature;BME280_humidity;BME280_pressure;Samples;Min_cycle;Max_cycle;Signal;HPM_P1;HPM_P2
2022/05/01 00:00:26;;;;;;;;;;;;;;;8.53;100.00;100150.81;5073548;28;995;-53
2022/05/01 00:02:52;;;;;;;;;;;;;;;8.62;100.00;100145.00;5073491;28;897;-51
2022/05/01 00:05:19;;;;;;;;;;;;;;;8.71;100.00;100142.69;5055610;28;1485;-55
2022/05/01 00:07:46;;;;;;;;;;;;;;;8.56;100.00;100152.03;5073489;28;845;-55
2022/05/01 00:10:13;;;;;;;;;;;;;;;8.59;100.00;100152.03;5073253;28;1890;-52
2022/05/01 00:12:39;;;;;;;;;;;;;;;8.59;100.00;100154.78;5073575;28;873;-54
2022/05/01 00:15:06;;;;;;;;;;;;;;;8.55;100.00;100145.69;5073431;28;818;-54
2022/05/01 00:17:33;;;;;;;;;;;;;;;8.62;100.00;100153.25;5073787;28;834;-55
2022/05/01 00:19:59;;;;;;;;;;;;;;;8.66;100.00;100147.75;5073387;28;818;-54
2022/05/01 00:22:25;;;;;;;;;;;;;;;8.47;100.00;100143.28;5073534;28;814;-54
2022/05/01 00:24:52;;;;;;;;;;;;;;;8.25;100.00;100154.06;5073609;28;978;-54
2022/05/01 00:27:19;;;;;;;;;;;;;;;8.14;100.00;100151.19;5072622;28;1393;-55
2022/05/01 00:29:45;;;;;;;;;;;;;;;8.21;100.00;100144.19;5072958;28;1976;-54
2022/05/01 00:32:11;;;;;;;;;;;;;;;8.19;100.00;100150.06;5072991;28;826;-54
2022/05/01 00:37:23;;;;;;;;;;;;;;;8.15;100.00;100146.47;5073181;28;633;-54
2022/05/01 00:39:49;;;;;;;;;;;;;;;8.12;100.00;100144.47;5072821;28;842;-55
2022/05/01 00:42:19;;;;;;;;;;;;;;;8.12;100.00;100152.75;5072696;28;1004;-54
2022/05/01 00:44:46;;;;;;;;;;;;;;;8.14;100.00;100153.16;5072673;28;858;-55
2022/05/01 00:47:13;;;;;;;;;;;;;;;8.20;100.00;100156.38;5072696;28;838;-54
2022/05/01 00:49:39;;;;;;;;;;;;;;;8.27;100.00;100153.69;5072589;28;1886;-54
2022/05/01 00:52:08;;;;;;;;;;;;;;;8.18;100.00;100151.25;5072628;28;818;-54
2022/05/01 00:54:36;;;;;;;;;;;;;;;8.22;100.00;100154.03;5072388;28;941;-54
2022/05/01 00:57:04;;;;;;;;;;;;;;;8.29;100.00;100159.59;5072549;28;814;-54
2022/05/01 00:59:31;;;;;;;;;;;;;;;8.33;100.00;100146.66;5072805;28;857;-55
2022/05/01 01:01:58;;;;;;;;;;;;;;;8.23;100.00;100152.84;5073075;28;787;-55
2022/05/01 01:04:25;;;;;;;;;;;;;;;8.25;100.00;100148.53;5072693;28;869;-55
2022/05/01 01:06:52;;;;;;;;;;;;;;;8.30;100.00;100147.41;5072988;28;767;-56
2022/05/01 01:09:19;;;;;;;;;;;;;;;8.23;100.00;100147.34;5072188;28;858;-54
2022/05/01 01:11:44;;;;;;;;;;;;;;;8.08;100.00;100155.44;5072351;28;1886;-54
2022/05/01 01:14:11;;;;;;;;;;;;;;;7.95;100.00;100156.88;5072158;28;921;-53
2022/05/01 01:16:39;;;;;;;;;;;;;;;7.82;100.00;100145.34;5072066;28;879;-54
2022/05/01 01:19:07;;;;;;;;;;;;;;;7.70;100.00;100153.81;5054455;28;806;-55
2022/05/01 01:21:34;;;;;;;;;;;;;;;7.69;100.00;100158.53;5072330;28;852;-55
2022/05/01 01:24:03;;;;;;;;;;;;;;;7.80;100.00;100146.88;5072388;28;1044;-55
2022/05/01 01:26:30;;;;;;;;;;;;;;;7.64;100.00;100114.06;5071920;28;1240;-55
2022/05/01 01:28:57;;;;;;;;;;;;;;;7.88;100.00;100146.59;5072085;28;995;-55
2022/05/01 01:31:43;;;;;;;;;;;;;;;7.64;100.00;100112.13;5072027;28;1906;-55
2022/05/01 01:34:14;;;;;;;;;;;;;;;7.84;100.00;100148.50;5072237;28;916;-52
2022/05/01 01:36:42;;;;;;;;;;;;;;;7.85;100.00;100155.59;5071728;28;933;-54
2022/05/01 01:39:09;;;;;;;;;;;;;;;7.82;100.00;100161.84;5071883;28;887;-53
2022/05/01 01:41:38;;;;;;;;;;;;;;;7.73;100.00;100164.09;5037309;28;870;-54
2022/05/01 01:44:05;;;;;;;;;;;;;;;7.57;100.00;100161.53;5071796;28;825;-55
2022/05/01 01:46:33;;;;;;;;;;;;;;;7.32;100.00;100167.50;5071616;28;897;-55
2022/05/01 01:48:59;;;;;;;;;;;;;;;7.14;100.00;100175.47;5071630;28;944;-54
2022/05/01 01:51:26;;;;;;;;;;;;;;;7.03;100.00;100181.97;5053512;28;1918;-54
2022/05/01 01:53:53;;;;;;;;;;;;;;;6.97;100.00;100181.50;5071695;28;896;-54
2022/05/01 01:56:20;;;;;;;;;;;;;;;6.86;100.00;100177.78;5071497;28;891;-54
2022/05/01 01:58:47;;;;;;;;;;;;;;;6.77;100.00;100178.03;5071476;28;925;-55
2022/05/01 02:01:14;;;;;;;;;;;;;;;6.69;100.00;100166.13;5037105;28;2292;-54
2022/05/01 02:03:40;;;;;;;;;;;;;;;6.83;100.00;100162.84;5071737;28;842;-54
2022/05/01 02:06:06;;;;;;;;;;;;;;;7.13;100.00;100162.13;5071536;28;885;-54
2022/05/01 02:08:36;;;;;;;;;;;;;;;7.35;100.00;100153.00;5071299;28;889;-54
2022/05/01 02:11:04;;;;;;;;;;;;;;;7.69;100.00;100150.28;5071582;28;1889;-55
2022/05/01 02:13:31;;;;;;;;;;;;;;;7.83;100.00;100154.38;5071430;28;790;-54
2022/05/01 02:15:57;;;;;;;;;;;;;;;8.00;100.00;100148.31;5053590;28;918;-54
2022/05/01 02:18:25;;;;;;;;;;;;;;;8.07;100.00;100158.59;5053541;28;877;-54
2022/05/01 02:23:38;;;;;;;;;;;;;;;8.07;100.00;100158.59;5071660;28;633;-53
2022/05/01 02:26:04;;;;;;;;;;;;;;;8.11;100.00;100154.72;5070834;28;1188;-54
2022/05/01 02:28:32;;;;;;;;;;;;;;;8.13;100.00;100146.88;5071291;28;873;-54
2022/05/01 02:30:58;;;;;;;;;;;;;;;8.13;100.00;100151.59;5071110;28;1914;-54
2022/05/01 02:33:25;;;;;;;;;;;;;;;8.20;100.00;100153.63;5071149;28;933;-55
2022/05/01 02:35:52;;;;;;;;;;;;;;;8.33;100.00;100154.94;5071535;28;897;-55
2022/05/01 02:38:19;;;;;;;;;;;;;;;8.42;100.00;100157.41;5071061;28;814;-56
2022/05/01 02:40:46;;;;;;;;;;;;;;;8.52;100.00;100164.97;5071133;28;865;-55
2022/05/01 02:43:12;;;;;;;;;;;;;;;8.60;100.00;100155.59;5071171;28;822;-54
2022/05/01 02:45:39;;;;;;;;;;;;;;;8.65;100.00;100168.25;5071160;28;962;-53
2022/05/01 02:48:05;;;;;;;;;;;;;;;8.66;100.00;100162.31;5071052;28;984;-56
2022/05/01 02:50:32;;;;;;;;;;;;;;;8.62;100.00;100158.78;5071045;28;1886;-54
2022/05/01 02:52:59;;;;;;;;;;;;;;;8.57;100.00;100162.66;5074661;28;1230;-56
2022/05/01 02:55:25;;;;;;;;;;;;;;;8.57;100.00;100168.16;5074751;28;1042;-54
2022/05/01 02:57:51;;;;;;;;;;;;;;;8.57;100.00;100170.91;5075039;28;883;-55
2022/05/01 03:00:18;;;;;;;;;;;;;;;8.54;100.00;100184.69;5074950;28;874;-55
2022/05/01 03:02:45;;;;;;;;;;;;;;;8.50;100.00;100197.63;5074760;28;966;-54
2022/05/01 03:05:12;;;;;;;;;;;;;;;8.42;100.00;100190.44;5056831;28;1270;-51
2022/05/01 03:07:39;;;;;;;;;;;;;;;8.33;100.00;100197.03;5056732;28;1430;-54
2022/05/01 03:10:07;;;;;;;;;;;;;;;8.25;100.00;100203.63;5074746;28;1890;-55
2022/05/01 03:12:33;;;;;;;;;;;;;;;8.19;100.00;100202.38;5074573;28;913;-55
2022/05/01 03:15:00;;;;;;;;;;;;;;;8.15;100.00;100209.78;5074626;28;900;-53
2022/05/01 03:22:10;;;;;;;;;;;;;;;8.10;100.00;100210.16;5074637;28;891;-55
2022/05/01 03:22:59;;;;;;;;;;;;;;;8.08;100.00;100209.72;5074349;28;637;-55
2022/05/01 03:25:26;;;;;;;;;;;;;;;8.20;100.00;100200.44;5074307;28;1291;-54
2022/05/01 03:27:53;;;;;;;;;;;;;;;8.31;100.00;100199.38;5074244;28;1173;-56
2022/05/01 03:30:20;;;;;;;;;;;;;;;8.36;100.00;100199.03;5074083;28;1902;-54
2022/05/01 03:32:46;;;;;;;;;;;;;;;8.44;100.00;100199.13;5074181;28;902;-54
2022/05/01 03:35:14;;;;;;;;;;;;;;;8.56;100.00;100201.63;5074108;28;889;-54
2022/05/01 03:37:42;;;;;;;;;;;;;;;8.67;100.00;100190.69;5073940;28;944;-56
2022/05/01 03:40:09;;;;;;;;;;;;;;;8.71;100.00;100205.31;5073913;28;863;-54
2022/05/01 03:42:36;;;;;;;;;;;;;;;8.78;98.29;100194.34;5073979;28;826;-55
2022/05/01 03:45:03;;;;;;;;;;;;;;;8.88;97.71;100201.91;5074236;28;881;-55
2022/05/01 03:47:28;;;;;;;;;;;;;;;8.97;96.15;100212.59;5073851;28;845;-55
2022/05/01 03:52:59;;;;;;;;;;;;;;;9.18;94.91;100207.25;5074090;28;538;-54
2022/05/01 03:55:25;;;;;;;;;;;;;;;9.27;93.73;100206.13;5073975;28;941;-54
2022/05/01 03:57:51;;;;;;;;;;;;;;;9.33;93.32;100212.88;5055678;28;714;-54
2022/05/01 04:00:21;;;;;;;;;;;;;;;9.39;92.39;100211.34;5073588;28;981;-55
2022/05/01 04:02:47;;;;;;;;;;;;;;;9.46;92.50;100211.38;5072510;28;842;-52
2022/05/01 04:05:14;;;;;;;;;;;;;;;9.50;92.34;100209.44;5073632;28;904;-56
2022/05/01 04:07:42;;;;;;;;;;;;;;;9.57;91.92;100203.16;5073412;28;798;-56
2022/05/01 04:10:09;;;;;;;;;;;;;;;9.66;91.63;100189.78;5073361;28;1890;-54
2022/05/01 04:12:40;;;;;;;;;;;;;;;9.75;90.14;100187.50;5055438;28;829;-53
2022/05/01 04:15:07;;;;;;;;;;;;;;;9.84;90.18;100181.63;5073314;28;960;-55
2022/05/01 04:17:39;;;;;;;;;;;;;;;9.88;89.65;100189.88;5073344;28;837;-55
2022/05/01 04:20:10;;;;;;;;;;;;;;;9.92;89.61;100188.75;5073342;28;902;-54
2022/05/01 04:35:32;;;;;;;;;;;;;;;10.54;85.13;100165.66;5065939;28;1215;-54
2022/05/01 04:37:59;;;;;;;;;;;;;;;10.63;83.84;100166.03;5072795;28;880;-55
2022/05/01 04:40:27;;;;;;;;;;;;;;;10.71;82.75;100169.59;5072821;28;921;-54
2022/05/01 04:43:01;;;;;;;;;;;;;;;10.80;84.33;100158.94;5072710;28;866;-55
2022/05/01 04:45:29;;;;;;;;;;;;;;;10.91;83.48;100158.16;5072760;28;890;-54
2022/05/01 04:47:55;;;;;;;;;;;;;;;10.97;82.66;100151.81;5072671;28;818;-55
2022/05/01 04:50:22;;;;;;;;;;;;;;;11.05;81.73;100155.34;5054796;28;1906;-56
2022/05/01 04:52:49;;;;;;;;;;;;;;;11.12;82.54;100163.66;5072767;28;806;-54
2022/05/01 04:55:16;;;;;;;;;;;;;;;11.22;81.89;100162.84;5054665;28;857;-54
2022/05/01 04:57:43;;;;;;;;;;;;;;;11.33;82.09;100150.94;5072595;28;869;-55
2022/05/01 05:00:09;;;;;;;;;;;;;;;11.48;82.21;100157.25;5072468;28;842;-54
2022/05/01 05:02:36;;;;;;;;;;;;;;;11.56;79.87;100162.34;5072463;28;893;-55
2022/05/01 05:05:04;;;;;;;;;;;;;;;11.67;80.45;100151.25;5072620;28;850;-54
2022/05/01 05:07:32;;;;;;;;;;;;;;;11.99;78.54;100156.69;5072455;28;853;-52
2022/05/01 05:09:59;;;;;;;;;;;;;;;12.71;77.02;100164.53;5072081;28;1889;-55
2022/05/01 05:12:26;;;;;;;;;;;;;;;13.46;72.49;100176.94;5072327;28;790;-55
2022/05/01 05:14:55;;;;;;;;;;;;;;;14.11;69.81;100168.63;5071893;28;905;-56
2022/05/01 05:20:23;;;;;;;;;;;;;;;15.05;66.74;100162.44;5072218;28;679;-53
2022/05/01 05:22:50;;;;;;;;;;;;;;;15.27;64.20;100165.63;5071973;28;853;-55
2022/05/01 05:25:19;;;;;;;;;;;;;;;15.10;65.19;100171.09;5072440;28;918;-55
2022/05/01 05:27:47;;;;;;;;;;;;;;;14.90;65.31;100164.69;5071888;28;933;-55
2022/05/01 05:30:14;;;;;;;;;;;;;;;14.68;67.01;100172.59;5071806;28;1898;-54
2022/05/01 05:32:41;;;;;;;;;;;;;;;14.60;68.39;100174.72;5072088;28;926;-52
2022/05/01 05:35:08;;;;;;;;;;;;;;;14.44;67.24;100178.06;5071513;28;1233;-51
2022/05/01 05:37:34;;;;;;;;;;;;;;;14.47;68.74;100171.69;5071872;28;811;-54
2022/05/01 05:40:01;;;;;;;;;;;;;;;15.02;67.26;100175.22;5071872;28;818;-55
2022/05/01 05:42:27;;;;;;;;;;;;;;;15.83;65.61;100176.94;5071854;28;842;-56
2022/05/01 05:44:54;;;;;;;;;;;;;;;16.44;62.84;100175.59;5071745;28;877;-55
2022/05/01 05:47:20;;;;;;;;;;;;;;;16.85;61.12;100179.03;5071808;28;850;-54
2022/05/01 05:49:47;;;;;;;;;;;;;;;16.87;60.75;100173.81;5071846;28;1993;-55
2022/05/01 05:52:13;;;;;;;;;;;;;;;17.16;59.62;100185.06;5071668;28;794;-55
2022/05/01 05:54:40;;;;;;;;;;;;;;;17.54;60.06;100185.22;5071695;28;811;-55
2022/05/01 05:57:07;;;;;;;;;;;;;;;18.10;58.34;100194.47;5071709;28;866;-56
2022/05/01 05:59:34;;;;;;;;;;;;;;;18.21;54.39;100194.16;5071473;28;993;-55
2022/05/01 06:02:02;;;;;;;;;;;;;;;18.26;56.37;100194.38;5071740;28;842;-56
2022/05/01 06:04:28;;;;;;;;;;;;;;;18.30;56.99;100191.47;5071427;28;795;-55
2022/05/01 06:06:55;;;;;;;;;;;;;;;18.52;56.22;100192.38;5071483;28;816;-55
2022/05/01 06:09:22;;;;;;;;;;;;;;;18.68;54.34;100199.09;5071534;28;834;-55
2022/05/01 06:11:48;;;;;;;;;;;;;;;18.45;53.87;100192.59;5071432;28;2018;-55
2022/05/01 06:14:15;;;;;;;;;;;;;;;18.61;56.74;100190.94;5053514;28;1566;-55
2022/05/01 06:16:41;;;;;;;;;;;;;;;19.07;54.69;100186.63;5071440;28;849;-56
2022/05/01 06:19:09;;;;;;;;;;;;;;;19.12;53.60;100174.84;5071418;28;801;-54
2022/05/01 06:21:36;;;;;;;;;;;;;;;18.87;52.97;100178.50;5071617;28;925;-56
2022/05/01 06:24:02;;;;;;;;;;;;;;;18.56;53.60;100184.66;5071372;28;1032;-55
2022/05/01 06:26:30;;;;;;;;;;;;;;;18.48;56.77;100199.34;5072891;28;810;-55
2022/05/01 06:28:59;;;;;;;;;;;;;;;18.78;55.95;100195.19;5075350;28;851;-55
2022/05/01 06:31:26;;;;;;;;;;;;;;;19.28;54.24;100187.91;5075244;28;1889;-56
2022/05/01 06:33:52;;;;;;;;;;;;;;;19.72;54.29;100185.19;5075319;28;846;-56
2022/05/01 06:36:19;;;;;;;;;;;;;;;19.94;53.26;100192.81;5074903;28;1209;-56
2022/05/01 06:38:47;;;;;;;;;;;;;;;20.13;50.97;100196.50;5075232;28;842;-56
2022/05/01 06:41:14;;;;;;;;;;;;;;;20.36;51.55;100196.00;5075078;28;942;-57
2022/05/01 06:43:41;;;;;;;;;;;;;;;20.58;47.51;100198.78;5075111;28;799;-56
2022/05/01 06:46:08;;;;;;;;;;;;;;;20.43;51.43;100202.59;5074711;28;805;-56
2022/05/01 06:48:35;;;;;;;;;;;;;;;20.65;50.38;100210.97;5075091;28;877;-56
2022/05/01 06:51:02;;;;;;;;;;;;;;;20.84;50.08;100204.16;5075001;28;1909;-56
2022/05/01 06:53:28;;;;;;;;;;;;;;;21.40;52.80;100208.66;5075008;28;850;-55
2022/05/01 06:58:57;;;;;;;;;;;;;;;21.48;52.02;100197.88;5074980;28;1043;-55
2022/05/01 07:01:24;;;;;;;;;;;;;;;22.24;48.86;100200.16;5074829;28;827;-55
2022/05/01 07:03:51;;;;;;;;;;;;;;;22.26;46.48;100203.28;5074810;28;877;-56
2022/05/01 07:06:17;;;;;;;;;;;;;;;22.45;48.43;100209.63;5074655;28;882;-56
2022/05/01 07:08:44;;;;;;;;;;;;;;;22.15;46.61;100210.16;5074636;28;838;-55
2022/05/01 07:11:10;;;;;;;;;;;;;;;22.24;45.98;100212.19;5074670;28;1979;-57
2022/05/01 07:13:40;;;;;;;;;;;;;;;22.28;44.24;100214.84;5074796;28;826;-56
2022/05/01 07:16:07;;;;;;;;;;;;;;;22.32;44.63;100209.81;5074525;28;1425;-56
2022/05/01 07:18:34;;;;;;;;;;;;;;;22.26;46.04;100211.75;5074498;28;1208;-56
2022/05/01 07:21:00;;;;;;;;;;;;;;;22.65;45.14;100209.09;5074409;28;1364;-55
2022/05/01 07:23:28;;;;;;;;;;;;;;;22.51;47.59;100216.97;5074475;28;798;-55
2022/05/01 07:25:55;;;;;;;;;;;;;;;22.62;43.91;100214.41;5074791;28;1308;-56
2022/05/01 07:28:22;;;;;;;;;;;;;;;22.26;45.47;100212.50;5074259;28;1298;-54
2022/05/01 07:30:47;;;;;;;;;;;;;;;22.92;48.56;100214.56;5074254;28;1890;-55
2022/05/01 07:33:14;;;;;;;;;;;;;;;23.74;45.03;100220.13;5074144;28;853;-57
2022/05/01 07:35:41;;;;;;;;;;;;;;;24.06;47.28;100218.44;5074019;28;1189;-54
2022/05/01 07:38:08;;;;;;;;;;;;;;;24.23;43.89;100213.06;5074206;28;878;-54
2022/05/01 07:40:36;;;;;;;;;;;;;;;24.52;41.57;100222.84;5074045;28;909;-56
2022/05/01 07:55:14;;;;;;;;;;;;;;;21.71;45.63;100223.81;5074201;28;819;-55
2022/05/01 07:57:41;;;;;;;;;;;;;;;20.66;46.65;100229.41;5073914;28;894;-56
2022/05/01 08:00:09;;;;;;;;;;;;;;;19.81;47.36;100232.16;5073966;28;932;-56
2022/05/01 08:04:27;;;;;;;;;;;;;;;19.29;50.11;100227.94;5073575;28;922;-55
2022/05/01 08:05:28;;;;;;;;;;;;;;;19.00;50.32;100231.69;5073460;28;1204;-53
2022/05/01 08:07:56;;;;;;;;;;;;;;;18.97;53.22;100233.38;5074013;28;1233;-56
2022/05/01 08:10:23;;;;;;;;;;;;;;;19.67;49.52;100239.03;5073867;28;1955;-55
2022/05/01 08:12:50;;;;;;;;;;;;;;;19.90;48.94;100234.22;5073731;28;889;-55
2022/05/01 08:15:18;;;;;;;;;;;;;;;19.67;50.75;100229.81;5073672;28;869;-54
2022/05/01 08:17:44;;;;;;;;;;;;;;;20.37;51.86;100228.44;5073783;28;900;-54
2022/05/01 08:23:07;;;;;;;;;;;;;;;21.24;48.45;100227.84;5073562;28;1503;-55
2022/05/01 08:25:35;;;;;;;;;;;;;;;22.10;47.30;100224.84;5073597;28;877;-56
2022/05/01 08:28:00;;;;;;;;;;;;;;;22.86;45.51;100227.75;5073218;28;871;-56
2022/05/01 08:30:27;;;;;;;;;;;;;;;23.31;43.23;100222.34;5072976;28;1885;-56
2022/05/01 08:32:53;;;;;;;;;;;;;;;24.22;44.61;100206.66;5072814;28;835;-55
2022/05/01 08:35:20;;;;;;;;;;;;;;;23.76;43.46;100220.44;5072657;28;1267;-55
2022/05/01 08:37:47;;;;;;;;;;;;;;;22.95;40.44;100222.06;5073138;28;810;-55
2022/05/01 08:40:14;;;;;;;;;;;;;;;22.06;43.06;100220.66;5073117;28;810;-56
2022/05/01 08:42:40;;;;;;;;;;;;;;;22.02;46.67;100212.38;5054856;28;1270;-56
2022/05/01 08:45:13;;;;;;;;;;;;;;;22.73;44.40;100215.94;5072708;28;885;-57
2022/05/01 08:59:52;;;;;;;;;;;;;;;21.31;46.49;100219.88;5072518;28;605;-55
2022/05/01 09:02:19;;;;;;;;;;;;;;;20.79;49.95;100225.22;5072544;28;798;-55
2022/05/01 09:04:46;;;;;;;;;;;;;;;20.24;50.00;100221.34;5072465;28;846;-55
2022/05/01 09:07:13;;;;;;;;;;;;;;;19.90;50.53;100225.81;5072515;28;790;-56
2022/05/01 09:09:38;;;;;;;;;;;;;;;19.33;50.08;100222.97;5072413;28;874;-56
2022/05/01 09:14:51;;;;;;;;;;;;;;;18.39;53.19;100238.38;5072610;28;872;-55
2022/05/01 09:17:24;;;;;;;;;;;;;;;18.15;53.28;100239.44;5072372;28;889;-55
2022/05/01 09:19:53;;;;;;;;;;;;;;;18.06;54.54;100236.53;5072315;28;881;-55
2022/05/01 09:22:21;;;;;;;;;;;;;;;18.00;54.22;100243.09;5072129;28;952;-55
2022/05/01 09:24:54;;;;;;;;;;;;;;;17.95;54.22;100242.44;5054224;28;942;-56
2022/05/01 09:27:25;;;;;;;;;;;;;;;17.83;53.24;100240.38;5072021;28;934;-55
2022/05/01 09:30:06;;;;;;;;;;;;;;;17.74;53.81;100234.59;5072215;28;917;-56
2022/05/01 09:32:39;;;;;;;;;;;;;;;17.75;53.64;100233.38;5071927;28;877;-56
2022/05/01 09:35:06;;;;;;;;;;;;;;;17.74;53.16;100232.59;5071845;28;1420;-55
2022/05/01 09:37:32;;;;;;;;;;;;;;;17.78;52.59;100223.34;5072088;28;858;-56
2022/05/01 09:40:00;;;;;;;;;;;;;;;17.76;53.12;100229.34;5072066;28;1240;-55
2022/05/01 09:42:29;;;;;;;;;;;;;;;17.75;53.23;100224.97;5071956;28;953;-55
2022/05/01 09:45:09;;;;;;;;;;;;;;;17.82;53.54;100230.41;5053913;28;1361;-54
2022/05/01 09:47:39;;;;;;;;;;;;;;;17.94;51.19;100232.47;5071726;28;945;-55
2022/05/01 09:50:07;;;;;;;;;;;;;;;17.99;51.61;100222.75;5071588;28;1910;-55
2022/05/01 09:52:52;;;;;;;;;;;;;;;18.06;52.82;100228.13;5071707;28;874;-55
2022/05/01 09:55:18;;;;;;;;;;;;;;;18.04;52.03;100219.41;5071702;28;921;-54
2022/05/01 10:26:29;;;;;;;;;;;;;;;18.87;50.68;100208.53;5085314;22;1827;-52
2022/05/01 10:29:08;;;;;;;;;;;;;;;18.96;50.34;100212.19;5051313;28;919;-55
2022/05/01 10:34:46;;;;;;;;;;;;;;;19.03;50.59;100210.38;5050905;28;616;-53
2022/05/01 10:49:34;;;;;;;;;;;;;;;18.50;52.62;100196.88;5051455;28;624;-55
2022/05/01 10:52:20;;;;;;;;;;;;;;;18.33;52.99;100191.38;5051227;28;1955;-54
2022/05/01 10:54:51;;;;;;;;;;;;;;;18.13;51.91;100185.94;5033160;28;957;-55
2022/05/01 10:57:18;;;;;;;;;;;;;;;18.15;51.04;100183.50;5050924;28;913;-54
2022/05/01 10:59:49;;;;;;;;;;;;;;;18.28;51.81;100183.50;5033580;28;791;-55
2022/05/01 11:02:24;;;;;;;;;;;;;;;18.50;53.17;100180.84;5050828;28;867;-54
2022/05/01 11:04:52;;;;;;;;;;;;;;;18.56;53.90;100187.47;5050911;28;871;-54
2022/05/01 11:07:20;;;;;;;;;;;;;;;18.82;54.78;100179.06;5050889;28;918;-55
2022/05/01 11:09:48;;;;;;;;;;;;;;;19.14;54.78;100171.59;5051204;28;747;-55
2022/05/01 11:12:16;;;;;;;;;;;;;;;19.49;53.77;100172.38;5052063;28;1935;-54
2022/05/01 11:14:50;;;;;;;;;;;;;;;19.57;53.65;100159.66;5036784;28;866;-54
2022/05/01 11:17:39;;;;;;;;;;;;;;;19.43;54.04;100156.59;5054496;28;854;-55
2022/05/01 11:20:08;;;;;;;;;;;;;;;19.47;54.83;100154.44;5054392;28;918;-53
2022/05/01 11:22:35;;;;;;;;;;;;;;;19.48;52.94;100150.38;5054360;28;898;-54
2022/05/01 11:25:03;;;;;;;;;;;;;;;19.30;53.34;100162.25;5054074;28;1194;-54
2022/05/01 11:27:50;;;;;;;;;;;;;;;19.03;53.00;100159.97;5054310;28;901;-53
2022/05/01 11:30:32;;;;;;;;;;;;;;;18.90;53.94;100157.97;5054168;28;1965;-53
2022/05/01 11:33:06;;;;;;;;;;;;;;;18.50;53.86;100150.06;5054111;28;942;-54
2022/05/01 11:35:50;;;;;;;;;;;;;;;17.60;54.68;100159.53;5054272;28;838;-55
2022/05/01 11:38:17;;;;;;;;;;;;;;;16.62;56.84;100177.16;5054089;28;866;-56
2022/05/01 11:40:55;;;;;;;;;;;;;;;16.08;58.44;100170.03;5054060;28;1145;-56
2022/05/01 11:43:21;;;;;;;;;;;;;;;15.24;63.69;100175.63;5053948;28;850;-55
2022/05/01 11:45:48;;;;;;;;;;;;;;;14.45;66.50;100171.31;5054021;28;854;-51
2022/05/01 11:48:16;;;;;;;;;;;;;;;13.96;70.67;100181.94;5053972;28;873;-56
2022/05/01 11:50:44;;;;;;;;;;;;;;;13.61;73.58;100172.03;5053718;28;1877;-55
2022/05/01 11:53:18;;;;;;;;;;;;;;;13.39;76.48;100182.59;5053721;28;925;-54
2022/05/01 12:04:23;;;;;;;;;;;;;;;12.57;84.37;100164.66;5054159;28;715;-56
2022/05/01 12:06:59;;;;;;;;;;;;;;;12.59;84.82;100153.94;5054248;28;1959;-55
2022/05/01 12:09:26;;;;;;;;;;;;;;;12.74;85.85;100149.03;5053348;28;1977;-56
2022/05/01 12:11:53;;;;;;;;;;;;;;;12.94;86.30;100152.06;5053723;28;1937;-55
2022/05/01 12:14:20;;;;;;;;;;;;;;;13.20;85.84;100145.84;5053544;28;799;-55
2022/05/01 12:16:47;;;;;;;;;;;;;;;13.40;86.31;100143.31;5053478;28;818;-55
2022/05/01 12:19:15;;;;;;;;;;;;;;;13.65;86.84;100140.22;5053405;28;837;-55
2022/05/01 12:21:42;;;;;;;;;;;;;;;14.05;87.56;100123.84;5053349;28;818;-55
2022/05/01 12:24:09;;;;;;;;;;;;;;;14.36;87.42;100123.81;5034494;28;1013;-53
2022/05/01 12:26:39;;;;;;;;;;;;;;;14.79;86.70;100116.78;5052864;28;1339;-54
2022/05/01 12:29:09;;;;;;;;;;;;;;;15.01;86.01;100117.97;5053148;28;878;-54
2022/05/01 12:31:54;;;;;;;;;;;;;;;15.15;84.13;100113.34;5035306;28;1906;-53
2022/05/01 12:34:23;;;;;;;;;;;;;;;15.24;82.79;100106.00;5053138;28;877;-54
2022/05/01 12:36:54;;;;;;;;;;;;;;;15.54;84.74;100098.66;5052945;28;856;-54
2022/05/01 12:39:24;;;;;;;;;;;;;;;15.91;83.70;100091.91;5052917;28;886;-54
2022/05/01 12:45:11;;;;;;;;;;;;;;;16.44;79.81;100083.53;5053218;28;680;-55
2022/05/01 12:47:41;;;;;;;;;;;;;;;16.83;80.22;100076.19;5052740;28;854;-54
2022/05/01 12:50:10;;;;;;;;;;;;;;;17.19;78.66;100072.44;5052586;28;1894;-53
2022/05/01 12:52:39;;;;;;;;;;;;;;;17.40;78.47;100067.50;5052636;28;830;-54
2022/05/01 12:55:18;;;;;;;;;;;;;;;17.52;77.45;100070.31;5052613;28;790;-54
2022/05/01 12:57:52;;;;;;;;;;;;;;;17.63;77.16;100067.19;5052856;28;849;-55
2022/05/01 13:00:32;;;;;;;;;;;;;;;17.66;73.33;100062.72;5052573;28;930;-54
2022/05/01 13:03:13;;;;;;;;;;;;;;;17.75;74.77;100058.06;5052433;28;934;-54
2022/05/01 13:05:41;;;;;;;;;;;;;;;17.86;71.07;100048.56;5052696;28;921;-54
2022/05/01 13:08:20;;;;;;;;;;;;;;;17.85;69.23;100061.00;5052501;28;821;-54
2022/05/01 13:11:05;;;;;;;;;;;;;;;17.91;67.01;100056.41;5052222;28;1965;-55
2022/05/01 13:13:47;;;;;;;;;;;;;;;17.93;64.23;100056.75;5052187;28;901;-54
2022/05/01 13:16:16;;;;;;;;;;;;;;;17.96;62.62;100053.03;5052176;28;851;-54
2022/05/01 13:18:44;;;;;;;;;;;;;;;18.08;65.93;100051.50;5052157;28;930;-54
2022/05/01 13:21:10;;;;;;;;;;;;;;;18.18;64.66;100053.16;5052004;28;966;-54
2022/05/01 13:23:40;;;;;;;;;;;;;;;18.46;68.13;100059.06;5052044;28;923;-54
2022/05/01 13:26:06;;;;;;;;;;;;;;;18.70;68.83;100054.63;5051702;28;1218;-54
2022/05/01 13:28:32;;;;;;;;;;;;;;;19.07;69.03;100056.97;5051921;28;910;-55
2022/05/01 13:30:59;;;;;;;;;;;;;;;19.45;68.23;100053.97;5051946;28;1915;-54
2022/05/01 13:33:26;;;;;;;;;;;;;;;19.58;66.05;100048.28;5052071;28;803;-54
2022/05/01 13:35:52;;;;;;;;;;;;;;;19.67;66.83;100055.97;5051584;28;870;-55
2022/05/01 13:38:20;;;;;;;;;;;;;;;19.81;65.21;100049.06;5051911;28;818;-54
2022/05/01 13:46:16;;;;;;;;;;;;;;;19.62;59.76;100053.78;5051904;28;684;-55
2022/05/01 13:48:44;;;;;;;;;;;;;;;19.37;62.75;100045.06;5051684;28;898;-55
2022/05/01 13:51:11;;;;;;;;;;;;;;;19.42;65.18;100042.91;5051908;28;1957;-55
2022/05/01 13:53:37;;;;;;;;;;;;;;;19.46;62.63;100049.94;5051555;28;922;-52
2022/05/01 13:56:04;;;;;;;;;;;;;;;19.58;63.24;100040.66;5051857;28;904;-54
2022/05/01 13:58:30;;;;;;;;;;;;;;;19.73;62.88;100045.75;5051834;28;834;-53
2022/05/01 14:00:57;;;;;;;;;;;;;;;19.84;59.17;100042.53;5051844;28;818;-54
2022/05/01 14:03:23;;;;;;;;;;;;;;;19.62;54.71;100046.13;5051754;28;866;-55
2022/05/01 14:05:51;;;;;;;;;;;;;;;19.34;59.38;100048.78;5051679;28;798;-55
2022/05/01 14:08:18;;;;;;;;;;;;;;;19.32;61.78;100039.28;5051687;28;874;-56
2022/05/01 14:10:45;;;;;;;;;;;;;;;19.11;57.04;100047.22;5051663;28;1969;-55
2022/05/01 14:13:12;;;;;;;;;;;;;;;18.83;60.36;100045.44;5051711;28;865;-55
2022/05/01 14:15:39;;;;;;;;;;;;;;;18.79;63.37;100051.16;5051773;28;814;-54
2022/05/01 14:18:08;;;;;;;;;;;;;;;18.55;61.40;100054.31;5052066;28;850;-54
2022/05/01 14:20:35;;;;;;;;;;;;;;;18.30;57.20;100043.97;5051256;28;850;-53
2022/05/01 14:23:04;;;;;;;;;;;;;;;18.09;57.97;100044.66;5051441;28;874;-55
2022/05/01 14:25:31;;;;;;;;;;;;;;;18.01;59.24;100049.72;5051198;28;1202;-54
2022/05/01 14:27:56;;;;;;;;;;;;;;;17.90;60.48;100052.84;5051266;28;929;-54
2022/05/01 14:30:24;;;;;;;;;;;;;;;17.79;60.14;100055.13;5051162;28;1973;-55
2022/05/01 14:32:53;;;;;;;;;;;;;;;17.70;58.99;100050.19;5051200;28;965;-56
2022/05/01 14:35:21;;;;;;;;;;;;;;;17.67;58.57;100048.31;5051209;28;934;-56
2022/05/01 14:38:03;;;;;;;;;;;;;;;17.52;59.06;100041.59;5051242;28;810;-55
2022/05/01 14:40:33;;;;;;;;;;;;;;;17.51;57.71;100042.81;5051341;28;850;-56
2022/05/01 14:43:05;;;;;;;;;;;;;;;17.59;62.28;100035.00;5051164;28;810;-52
2022/05/01 14:45:31;;;;;;;;;;;;;;;17.65;59.45;100038.81;5051188;28;822;-55
2022/05/01 14:48:13;;;;;;;;;;;;;;;17.73;55.13;100029.75;5053270;28;795;-56
2022/05/01 14:50:43;;;;;;;;;;;;;;;17.79;57.45;100040.38;5055066;28;1890;-54
2022/05/01 14:53:11;;;;;;;;;;;;;;;17.87;59.34;100020.16;5054935;28;1130;-55
2022/05/01 14:55:38;;;;;;;;;;;;;;;17.77;59.99;100032.44;5055162;28;802;-56
2022/05/01 15:06:17;;;;;;;;;;;;;;;17.50;56.34;100025.25;5055113;28;858;-55
2022/05/01 15:06:28;;;;;;;;;;;;;;;16.93;57.22;100019.28;5055132;28;613;-55
2022/05/01 15:08:56;;;;;;;;;;;;;;;16.77;58.14;100024.09;5054834;28;889;-55